createdAt,value
2024-01-22T00:01:00.754Z,3.48
2024-01-22T00:04:02.364Z,3.52
2024-01-22T00:07:04.110Z,3.48
2024-01-22T00:10:06.116Z,3.49
2024-01-22T00:13:07.693Z,3.49
2024-01-22T00:16:10.825Z,3.52
2024-01-22T00:19:12.770Z,3.52
2024-01-22T00:22:14.391Z,3.53
2024-01-22T00:25:16.179Z,3.52
2024-01-22T00:28:18.278Z,3.62
2024-01-22T00:31:21.204Z,3.65
2024-01-22T00:34:22.946Z,3.67
2024-01-22T00:37:24.593Z,3.65
2024-01-22T00:40:26.162Z,3.67
2024-01-22T00:43:27.661Z,3.71
2024-01-22T00:46:32.123Z,3.71
2024-01-22T00:49:35.149Z,3.66
2024-01-22T00:52:36.726Z,3.69
2024-01-22T00:55:39.117Z,3.70
2024-01-22T00:58:41.118Z,3.72
2024-01-22T01:01:43.995Z,3.89
2024-01-22T01:04:46.146Z,3.91
2024-01-22T01:07:48.081Z,4.01
2024-01-22T01:10:49.762Z,4.00
2024-01-22T01:13:52.024Z,4.04
2024-01-22T01:16:55.147Z,4.04
2024-01-22T01:19:56.651Z,4.03
2024-01-22T01:22:58.228Z,4.07
2024-01-22T01:26:00.985Z,4.01
2024-01-22T01:29:02.673Z,4.02
2024-01-22T01:32:06.470Z,4.15
2024-01-22T01:35:09.409Z,4.16
2024-01-22T01:38:11.560Z,4.13
2024-01-22T01:41:12.976Z,4.23
2024-01-22T01:44:14.505Z,4.27
2024-01-22T01:47:18.799Z,4.17
2024-01-22T01:50:20.673Z,4.27
2024-01-22T01:53:22.423Z,4.19
2024-01-22T01:56:24.092Z,4.17
2024-01-22T01:59:26.567Z,4.21
2024-01-22T02:02:29.979Z,4.23
2024-01-22T02:05:32.001Z,4.26
2024-01-22T02:08:33.615Z,4.31
2024-01-22T02:11:35.242Z,4.37
2024-01-22T02:14:36.958Z,4.34
2024-01-22T02:17:41.880Z,4.22
2024-01-22T02:20:43.852Z,4.30
2024-01-22T02:23:46.804Z,4.36
2024-01-22T02:26:48.443Z,4.40
2024-01-22T02:29:50.115Z,4.46
2024-01-22T02:32:51.791Z,4.53
2024-01-22T02:35:53.518Z,4.65
2024-01-22T02:38:56.434Z,4.60
2024-01-22T02:41:58.107Z,4.59
2024-01-22T02:45:00.279Z,4.64
2024-01-22T02:48:01.853Z,4.75
2024-01-22T02:51:08.568Z,4.65
2024-01-22T02:54:11.639Z,4.67
2024-01-22T02:57:13.247Z,4.73
2024-01-22T03:00:15.278Z,4.61
2024-01-22T03:03:16.892Z,4.67
2024-01-22T03:06:18.592Z,4.82
2024-01-22T03:09:22.111Z,4.68
2024-01-22T03:12:23.679Z,4.82
2024-01-22T03:15:25.277Z,4.95
2024-01-22T03:18:26.934Z,4.90
2024-01-22T03:21:28.606Z,5.01
2024-01-22T03:24:33.005Z,5.29
2024-01-22T03:27:34.821Z,5.40
2024-01-22T03:30:36.477Z,5.72
2024-01-22T03:33:38.093Z,5.98
2024-01-22T03:36:39.677Z,6.05
2024-01-22T03:39:42.652Z,5.94
2024-01-22T03:42:44.232Z,5.82
2024-01-22T03:45:46.915Z,5.72
2024-01-22T03:48:48.969Z,5.82
2024-01-22T03:51:50.593Z,5.86
2024-01-22T03:54:53.634Z,5.89
2024-01-22T03:57:55.534Z,5.97
2024-01-22T04:00:58.351Z,6.04
2024-01-22T04:03:59.949Z,6.22
2024-01-22T04:07:01.726Z,6.13
2024-01-22T04:10:06.441Z,6.01
2024-01-22T04:13:07.967Z,6.26
2024-01-22T04:16:13.276Z,6.31
2024-01-22T04:19:15.092Z,6.82
2024-01-22T04:22:17.813Z,6.89
2024-01-22T04:25:20.832Z,6.94
2024-01-22T04:28:22.378Z,6.97
2024-01-22T04:31:23.941Z,7.12
2024-01-22T04:34:25.747Z,7.02
2024-01-22T04:37:28.697Z,7.03
2024-01-22T04:40:31.676Z,7.25
2024-01-22T04:43:33.294Z,7.47
2024-01-22T04:46:36.562Z,7.47
2024-01-22T04:49:41.312Z,7.74
2024-01-22T04:52:42.882Z,7.71
2024-01-22T04:55:46.068Z,7.70
2024-01-22T04:58:47.609Z,7.59
2024-01-22T05:05:22.016Z,7.23
2024-01-22T05:08:23.864Z,7.09
2024-01-22T05:11:26.841Z,7.23
2024-01-22T05:14:28.401Z,7.14
2024-01-22T05:17:32.535Z,7.03
2024-01-22T05:20:34.156Z,7.08
2024-01-22T05:23:35.845Z,7.10
2024-01-22T05:26:40.219Z,7.20
2024-01-22T05:29:42.582Z,7.11
2024-01-22T05:32:45.595Z,7.35
2024-01-22T05:35:50.910Z,7.30
2024-01-22T05:38:52.593Z,7.51
2024-01-22T05:41:57.096Z,7.45
2024-01-22T05:45:00.936Z,7.42
2024-01-22T05:48:02.828Z,7.56
2024-01-22T05:51:05.119Z,7.51
2024-01-22T05:54:06.665Z,7.44
2024-01-22T05:57:09.947Z,7.51
2024-01-22T06:00:13.087Z,7.76
2024-01-22T06:03:14.790Z,7.76
2024-01-22T06:06:16.955Z,7.81
2024-01-22T06:12:49.353Z,7.82
2024-01-22T06:15:51.022Z,7.76
2024-01-22T06:18:52.703Z,7.92
2024-01-22T06:21:54.416Z,7.75
2024-01-22T06:24:56.376Z,7.76
2024-01-22T06:27:59.275Z,7.82
2024-01-22T06:31:00.918Z,7.82
2024-01-22T06:34:02.750Z,7.78
2024-01-22T06:37:04.467Z,7.80
2024-01-22T06:44:10.079Z,7.91
2024-01-22T06:47:11.709Z,7.91
2024-01-22T06:50:13.523Z,7.92
2024-01-22T06:53:15.630Z,7.90
2024-01-22T06:56:18.667Z,7.89
2024-01-22T06:59:21.562Z,8.01
2024-01-22T07:02:23.242Z,8.01
2024-01-22T07:08:54.351Z,8.25
2024-01-22T07:15:27.176Z,8.31
2024-01-22T07:18:30.366Z,8.36
2024-01-22T07:22:04.545Z,8.32
2024-01-22T07:25:06.674Z,8.24
2024-01-22T07:28:08.325Z,8.32
2024-01-22T07:31:11.587Z,8.60
2024-01-22T07:34:45.953Z,8.66
2024-01-22T07:37:48.231Z,8.57
2024-01-22T07:41:22.392Z,8.53
2024-01-22T07:44:24.294Z,8.56
2024-01-22T07:47:27.087Z,8.79
2024-01-22T07:50:28.818Z,8.74
2024-01-22T07:53:30.367Z,8.79
2024-01-22T07:56:31.961Z,8.88
2024-01-22T07:59:33.806Z,8.73
2024-01-22T08:02:36.889Z,8.70
2024-01-22T08:09:39.768Z,8.57
2024-01-22T08:12:41.480Z,8.55
2024-01-22T08:15:43.049Z,8.54
2024-01-22T08:18:46.260Z,8.64
2024-01-22T08:25:49.734Z,8.51
2024-01-22T08:28:51.284Z,8.45
2024-01-22T08:31:52.856Z,8.54
2024-01-22T08:39:33.353Z,8.56
2024-01-22T08:46:36.974Z,8.56
2024-01-22T08:49:38.599Z,8.58
2024-01-22T08:52:43.885Z,8.46
2024-01-22T08:59:15.341Z,8.34
2024-01-22T09:02:16.940Z,8.41
2024-01-22T09:05:50.619Z,8.47
2024-01-22T09:09:25.819Z,8.51
2024-01-22T09:12:27.504Z,8.55
2024-01-22T09:16:01.672Z,8.68
2024-01-22T09:19:35.690Z,8.79
2024-01-22T09:26:11.504Z,8.81
2024-01-22T09:29:13.942Z,8.91
2024-01-22T09:32:15.556Z,9.13
2024-01-22T09:38:48.057Z,9.06
2024-01-22T09:46:26.009Z,9.17
2024-01-22T09:49:27.706Z,9.11
2024-01-22T10:00:06.521Z,9.16
2024-01-22T10:07:43.028Z,9.32
2024-01-22T10:14:48.191Z,9.37
2024-01-22T10:18:23.008Z,9.51
2024-01-22T10:21:24.765Z,9.49
2024-01-22T10:25:02.037Z,9.59
2024-01-22T10:28:14.062Z,9.40
2024-01-22T10:35:25.879Z,9.32
2024-01-22T10:38:27.579Z,9.26
2024-01-22T10:44:58.637Z,9.25
2024-01-22T10:48:06.529Z,9.19
2024-01-22T10:51:16.022Z,9.39
2024-01-22T10:54:29.189Z,9.32
2024-01-22T10:57:36.173Z,9.18
2024-01-22T11:04:45.597Z,9.50
2024-01-22T11:08:21.052Z,9.44
2024-01-22T11:11:25.973Z,9.30
2024-01-22T11:15:00.089Z,9.33
2024-01-22T11:18:02.032Z,9.38
2024-01-22T11:21:18.175Z,9.30
2024-01-22T11:24:21.308Z,9.36
2024-01-22T11:27:37.538Z,9.51
2024-01-22T11:34:11.044Z,9.46
2024-01-22T11:37:12.846Z,9.51
2024-01-22T11:40:47.956Z,9.62
2024-01-22T11:44:25.752Z,9.77
2024-01-22T11:50:58.155Z,9.87
2024-01-22T11:54:31.815Z,9.92
2024-01-22T11:57:34.970Z,9.82
2024-01-22T12:00:38.692Z,9.89
2024-01-22T12:03:40.813Z,9.87
2024-01-22T12:07:15.167Z,9.77
2024-01-22T12:10:21.956Z,9.72
2024-01-22T12:13:57.861Z,9.66
2024-01-22T12:17:02.550Z,9.75
2024-01-22T12:24:12.727Z,9.58
2024-01-22T12:27:20.735Z,9.61
2024-01-22T12:30:22.501Z,9.38
2024-01-22T12:34:11.131Z,8.91
2024-01-22T12:37:45.151Z,8.49
2024-01-22T12:40:57.896Z,8.74
2024-01-22T12:43:59.651Z,8.84
2024-01-22T12:47:01.267Z,8.93
2024-01-22T12:50:04.771Z,9.02
2024-01-22T12:53:06.835Z,8.95
2024-01-22T12:56:13.720Z,8.73
2024-01-22T12:59:48.529Z,8.62
2024-01-22T13:02:50.348Z,8.52
2024-01-22T13:05:53.583Z,8.47
2024-01-22T13:08:55.935Z,8.45
2024-01-22T13:11:57.596Z,8.48
2024-01-22T13:18:28.308Z,8.53
2024-01-22T13:21:31.440Z,8.32
2024-01-22T13:28:36.575Z,8.29
2024-01-22T13:31:38.229Z,8.24
2024-01-22T13:34:39.905Z,8.24
2024-01-22T13:37:42.854Z,8.18
2024-01-22T13:41:17.232Z,8.28
2024-01-22T13:44:18.654Z,8.19
2024-01-22T13:47:25.485Z,8.22
2024-01-22T13:50:43.045Z,8.19
2024-01-22T13:53:46.145Z,8.10
2024-01-22T13:57:21.096Z,8.12
2024-01-22T14:00:22.845Z,8.39
2024-01-22T14:10:56.634Z,8.95
2024-01-22T14:14:01.892Z,8.78
2024-01-22T14:17:35.827Z,8.67
2024-01-22T14:20:38.035Z,8.65
2024-01-22T14:23:41.769Z,8.28
2024-01-22T14:26:46.222Z,8.19
2024-01-22T14:29:48.415Z,8.19
2024-01-22T14:32:50.756Z,8.26
2024-01-22T14:35:53.271Z,8.27
2024-01-22T14:39:27.462Z,8.11
2024-01-22T14:42:30.276Z,8.04
2024-01-22T14:45:31.930Z,7.98
2024-01-22T14:48:34.372Z,7.88
2024-01-22T14:51:36.347Z,7.92
2024-01-22T14:54:37.916Z,8.04
2024-01-22T14:57:41.115Z,7.92
2024-01-22T15:01:15.206Z,7.89
2024-01-22T15:04:18.133Z,7.90
2024-01-22T15:07:23.244Z,7.82
2024-01-22T15:10:24.902Z,7.72
2024-01-22T15:13:27.977Z,7.67
2024-01-22T15:17:02.108Z,7.61
2024-01-22T15:20:03.962Z,7.49
2024-01-22T15:23:05.624Z,7.51
2024-01-22T15:26:07.501Z,7.64
2024-01-22T15:29:10.606Z,7.69
2024-01-22T15:32:12.181Z,7.71
2024-01-22T15:35:14.214Z,7.69
2024-01-22T15:38:49.100Z,7.64
2024-01-22T15:41:51.141Z,7.51
2024-01-22T15:44:54.167Z,7.50
2024-01-22T15:47:56.348Z,7.52
2024-01-22T15:50:58.019Z,7.64
2024-01-22T15:54:02.758Z,7.54
2024-01-22T15:57:04.770Z,7.61
2024-01-22T16:00:08.532Z,7.62
2024-01-22T16:07:13.550Z,7.35
2024-01-22T16:10:16.244Z,7.20
2024-01-22T16:13:19.863Z,7.20
2024-01-22T16:16:23.467Z,7.09
2024-01-22T16:19:25.857Z,7.00
2024-01-22T16:22:27.560Z,7.00
2024-01-22T16:25:29.346Z,6.85
2024-01-22T16:28:31.010Z,6.97
2024-01-22T16:31:37.330Z,7.10
2024-01-22T16:34:40.370Z,7.04
2024-01-22T16:37:42.471Z,7.02
2024-01-22T16:40:44.279Z,6.99
2024-01-22T16:43:45.881Z,7.01
2024-01-22T16:46:48.864Z,7.04
2024-01-22T16:49:50.531Z,7.17
2024-01-22T16:52:52.186Z,7.09
2024-01-22T16:55:53.781Z,6.91
2024-01-22T16:59:31.895Z,6.81
2024-01-22T17:02:34.792Z,6.77
2024-01-22T17:05:37.981Z,6.76
2024-01-22T17:08:39.943Z,6.70
2024-01-22T17:11:41.769Z,6.58
2024-01-22T17:14:43.560Z,6.59
2024-01-22T17:17:48.544Z,6.57
2024-01-22T17:20:51.275Z,6.57
2024-01-22T17:23:52.883Z,6.51
2024-01-22T17:26:54.905Z,6.60
2024-01-22T17:29:57.271Z,6.49
2024-01-22T17:36:29.729Z,6.43
2024-01-22T17:39:31.399Z,6.47
2024-01-22T17:42:33.026Z,6.38
2024-01-22T17:45:35.060Z,6.41
2024-01-22T17:49:10.807Z,6.51
2024-01-22T17:52:12.370Z,6.62
2024-01-22T17:55:14.170Z,6.61
2024-01-22T17:58:15.794Z,6.63
2024-01-22T18:01:50.030Z,6.59
2024-01-22T18:04:53.009Z,6.66
2024-01-22T18:07:54.602Z,6.69
2024-01-22T18:10:56.220Z,6.69
2024-01-22T18:13:57.777Z,6.67
2024-01-22T18:16:59.432Z,6.63
2024-01-22T18:20:02.346Z,6.55
2024-01-22T18:23:04.168Z,6.41
2024-01-22T18:26:05.982Z,6.35
2024-01-22T18:29:40.293Z,6.33
2024-01-22T18:32:41.924Z,6.48
2024-01-22T18:35:45.171Z,6.38
2024-01-22T18:38:46.769Z,6.22
2024-01-22T18:41:48.473Z,6.14
2024-01-22T18:44:50.191Z,6.15
2024-01-22T18:47:51.941Z,6.09
2024-01-22T18:50:55.027Z,6.00
2024-01-22T18:53:56.684Z,6.02
2024-01-22T18:56:58.339Z,6.00
2024-01-22T19:00:00.140Z,6.03
2024-01-22T19:03:34.246Z,5.99
2024-01-22T19:10:09.933Z,6.31
2024-01-22T19:13:44.612Z,6.28
2024-01-22T19:20:15.403Z,6.45
2024-01-22T19:23:18.205Z,6.43
2024-01-22T19:26:19.908Z,6.49
2024-01-22T19:29:21.530Z,6.63
2024-01-22T19:32:55.347Z,6.66
2024-01-22T19:39:27.863Z,6.65
2024-01-22T19:42:30.031Z,6.74
2024-01-22T19:45:31.984Z,6.74
2024-01-22T19:48:33.643Z,6.78
2024-01-22T19:51:35.338Z,6.81
2024-01-22T19:54:38.506Z,6.80
2024-01-22T19:57:40.349Z,6.84
2024-01-22T20:00:42.174Z,6.78
2024-01-22T20:03:45.173Z,6.79
2024-01-22T20:06:47.144Z,6.78
2024-01-22T20:13:53.040Z,6.72
2024-01-22T20:20:23.846Z,6.71
2024-01-22T20:23:25.460Z,6.70
2024-01-22T20:26:28.618Z,6.71
2024-01-22T20:29:33.281Z,6.60
2024-01-22T20:32:35.201Z,6.54
2024-01-22T20:35:36.645Z,6.47
2024-01-22T20:39:10.314Z,6.51
2024-01-22T20:42:46.807Z,6.47
2024-01-22T20:45:48.811Z,6.40
2024-01-22T20:48:52.125Z,6.12
2024-01-22T20:51:53.798Z,6.18
2024-01-22T20:54:55.458Z,6.28
2024-01-22T20:57:58.623Z,6.34
2024-01-22T21:01:00.371Z,6.37
2024-01-22T21:04:02.159Z,6.44
2024-01-22T21:07:07.523Z,6.40
2024-01-22T21:10:09.872Z,6.37
2024-01-22T21:13:13.026Z,6.34
2024-01-22T21:16:14.594Z,6.20
2024-01-22T21:19:50.466Z,6.24
2024-01-22T21:22:52.106Z,6.10
2024-01-22T21:26:26.443Z,6.12
2024-01-22T21:29:29.351Z,5.91
2024-01-22T21:32:31.042Z,5.87
2024-01-22T21:35:32.648Z,5.83
2024-01-22T21:38:36.090Z,5.93
2024-01-22T21:41:37.668Z,5.97
2024-01-22T21:45:12.794Z,6.05
2024-01-22T21:48:14.649Z,6.17
2024-01-22T21:51:48.179Z,6.35
2024-01-22T21:54:49.898Z,6.30
2024-01-22T21:57:52.575Z,6.33
2024-01-22T22:01:30.482Z,6.24
2024-01-22T22:04:32.477Z,6.23
2024-01-22T22:07:34.552Z,6.33
2024-01-22T22:10:36.455Z,6.28
2024-01-22T22:14:10.002Z,6.24
2024-01-22T22:17:13.324Z,6.21
2024-01-22T22:20:15.914Z,6.21
2024-01-22T22:23:49.202Z,6.27
2024-01-22T22:26:50.851Z,6.38
2024-01-22T22:29:52.560Z,6.44
2024-01-22T22:32:55.722Z,6.39
2024-01-22T22:40:01.759Z,6.28
2024-01-22T22:43:03.823Z,6.25
2024-01-22T22:46:05.329Z,6.22
2024-01-22T22:49:08.302Z,6.34
2024-01-22T22:52:10.048Z,6.32
2024-01-22T22:55:11.636Z,6.34
2024-01-22T22:58:13.284Z,6.55
2024-01-22T23:01:47.301Z,6.51
2024-01-22T23:04:50.520Z,6.50
2024-01-22T23:07:52.170Z,6.40
2024-01-22T23:14:23.106Z,6.19
2024-01-22T23:17:24.668Z,6.14
2024-01-22T23:20:27.786Z,6.18
2024-01-22T23:23:30.986Z,6.25
2024-01-22T23:27:04.613Z,6.35
2024-01-22T23:30:07.861Z,6.42
2024-01-22T23:33:09.850Z,6.35
2024-01-22T23:36:12.924Z,6.43
2024-01-22T23:42:45.642Z,6.31
2024-01-22T23:45:47.518Z,6.31
2024-01-22T23:48:49.250Z,6.43
2024-01-22T23:51:52.495Z,6.24
2024-01-22T23:54:54.059Z,6.34
2024-01-22T23:57:55.717Z,6.47
